sensor_id;sensor_type;location;lat;lon;timestamp;pressure;altitude;pressure_sealevel;temperature;humidity
10606;BME280;5350;42.698;23.148;2023-03-25T00:01:51;93365.13;;;9.11;98.72
10606;BME280;5350;42.698;23.148;2023-03-25T00:04:18;93375.81;;;9.14;99.37
10606;BME280;5350;42.698;23.148;2023-03-25T00:06:44;93373.00;;;9.11;99.08
10606;BME280;5350;42.698;23.148;2023-03-25T00:09:13;93368.44;;;9.16;98.52
10606;BME280;5350;42.698;23.148;2023-03-25T00:11:39;93365.13;;;9.11;98.66
10606;BME280;5350;42.698;23.148;2023-03-25T00:14:06;93366.78;;;9.07;98.96
10606;BME280;5350;42.698;23.148;2023-03-25T00:16:33;93363.72;;;9.00;99.36
10606;BME280;5350;42.698;23.148;2023-03-25T00:19:01;93363.06;;;9.08;99.26
10606;BME280;5350;42.698;23.148;2023-03-25T00:21:28;93357.56;;;8.91;100.00
10606;BME280;5350;42.698;23.148;2023-03-25T00:23:57;93354.56;;;8.78;100.00
10606;BME280;5350;42.698;23.148;2023-03-25T00:26:26;93358.06;;;8.74;100.00
10606;BME280;5350;42.698;23.148;2023-03-25T00:28:54;93350.97;;;8.74;100.00
10606;BME280;5350;42.698;23.148;2023-03-25T00:31:21;93354.16;;;8.71;100.00
10606;BME280;5350;42.698;23.148;2023-03-25T00:33:48;93334.56;;;8.45;100.00
10606;BME280;5350;42.698;23.148;2023-03-25T00:36:15;93355.31;;;8.65;100.00
10606;BME280;5350;42.698;23.148;2023-03-25T00:38:42;93351.81;;;8.70;100.00
10606;BME280;5350;42.698;23.148;2023-03-25T00:41:12;93351.59;;;8.66;100.00
10606;BME280;5350;42.698;23.148;2023-03-25T00:43:43;93349.91;;;8.75;100.00
10606;BME280;5350;42.698;23.148;2023-03-25T00:46:10;93345.94;;;8.59;100.00
10606;BME280;5350;42.698;23.148;2023-03-25T00:48:37;93344.03;;;8.65;100.00
10606;BME280;5350;42.698;23.148;2023-03-25T00:51:04;93340.06;;;8.67;100.00
10606;BME280;5350;42.698;23.148;2023-03-25T00:53:35;93342.03;;;8.57;100.00
10606;BME280;5350;42.698;23.148;2023-03-25T00:56:02;93341.94;;;8.43;100.00
10606;BME280;5350;42.698;23.148;2023-03-25T00:58:29;93348.03;;;8.39;100.00
10606;BME280;5350;42.698;23.148;2023-03-25T01:00:57;93323.94;;;8.55;100.00
10606;BME280;5350;42.698;23.148;2023-03-25T01:03:26;93331.31;;;8.53;100.00
10606;BME280;5350;42.698;23.148;2023-03-25T01:05:54;93321.81;;;8.57;100.00
10606;BME280;5350;42.698;23.148;2023-03-25T01:08:22;93323.84;;;8.65;100.00
10606;BME280;5350;42.698;23.148;2023-03-25T01:10:51;93325.53;;;8.56;100.00
10606;BME280;5350;42.698;23.148;2023-03-25T01:13:18;93324.09;;;8.64;99.87
10606;BME280;5350;42.698;23.148;2023-03-25T01:15:45;93321.34;;;8.74;100.00
10606;BME280;5350;42.698;23.148;2023-03-25T01:18:13;93311.63;;;8.74;100.00
10606;BME280;5350;42.698;23.148;2023-03-25T01:20:40;93302.88;;;8.65;99.78
10606;BME280;5350;42.698;23.148;2023-03-25T01:23:07;93296.63;;;8.80;99.21
10606;BME280;5350;42.698;23.148;2023-03-25T01:25:35;93305.34;;;8.57;100.00
10606;BME280;5350;42.698;23.148;2023-03-25T01:28:02;93301.47;;;8.86;98.24
10606;BME280;5350;42.698;23.148;2023-03-25T01:30:29;93297.16;;;8.77;99.13
10606;BME280;5350;42.698;23.148;2023-03-25T01:32:56;93293.41;;;8.64;100.00
10606;BME280;5350;42.698;23.148;2023-03-25T01:35:24;93280.75;;;8.71;99.46
10606;BME280;5350;42.698;23.148;2023-03-25T01:37:51;93273.88;;;8.57;100.00
10606;BME280;5350;42.698;23.148;2023-03-25T01:40:21;93293.63;;;8.68;99.85
10606;BME280;5350;42.698;23.148;2023-03-25T01:42:49;93291.50;;;8.51;100.00
10606;BME280;5350;42.698;23.148;2023-03-25T01:45:21;93286.84;;;8.48;100.00
10606;BME280;5350;42.698;23.148;2023-03-25T01:47:52;93261.19;;;8.45;100.00
10606;BME280;5350;42.698;23.148;2023-03-25T01:50:24;93277.53;;;8.74;99.14
10606;BME280;5350;42.698;23.148;2023-03-25T01:52:55;93279.25;;;8.65;99.40
10606;BME280;5350;42.698;23.148;2023-03-25T01:55:23;93279.31;;;8.60;99.42
10606;BME280;5350;42.698;23.148;2023-03-25T01:57:53;93280.91;;;8.61;100.00
10606;BME280;5350;42.698;23.148;2023-03-25T02:00:22;93282.66;;;8.66;98.70
10606;BME280;5350;42.698;23.148;2023-03-25T02:02:52;93285.13;;;8.95;96.09
10606;BME280;5350;42.698;23.148;2023-03-25T02:05:31;93282.97;;;8.97;95.69
10606;BME280;5350;42.698;23.148;2023-03-25T02:08:01;93256.66;;;8.69;96.89
10606;BME280;5350;42.698;23.148;2023-03-25T02:10:30;93283.53;;;8.94;95.21
10606;BME280;5350;42.698;23.148;2023-03-25T02:12:58;93277.50;;;8.93;95.81
10606;BME280;5350;42.698;23.148;2023-03-25T02:15:25;93274.97;;;8.88;96.64
10606;BME280;5350;42.698;23.148;2023-03-25T02:18:13;93282.00;;;8.93;95.72
10606;BME280;5350;42.698;23.148;2023-03-25T02:29:56;93256.66;;;8.69;96.75
10606;BME280;5350;42.698;23.148;2023-03-25T02:32:44;93258.53;;;8.82;95.83
10606;BME280;5350;42.698;23.148;2023-03-25T02:35:28;93260.66;;;8.80;95.71
10606;BME280;5350;42.698;23.148;2023-03-25T02:38:25;93253.22;;;8.88;94.92
10606;BME280;5350;42.698;23.148;2023-03-25T02:40:56;93257.06;;;8.76;95.50
10606;BME280;5350;42.698;23.148;2023-03-25T02:43:30;93263.88;;;8.77;95.28
10606;BME280;5350;42.698;23.148;2023-03-25T02:46:00;93252.47;;;9.01;93.58
10606;BME280;5350;42.698;23.148;2023-03-25T02:48:33;93257.59;;;8.92;94.81
10606;BME280;5350;42.698;23.148;2023-03-25T02:51:06;93258.38;;;8.93;94.69
10606;BME280;5350;42.698;23.148;2023-03-25T02:53:38;93248.47;;;8.90;94.78
10606;BME280;5350;42.698;23.148;2023-03-25T02:56:09;93247.97;;;8.88;95.16
10606;BME280;5350;42.698;23.148;2023-03-25T02:58:40;93240.59;;;8.90;94.37
10606;BME280;5350;42.698;23.148;2023-03-25T03:01:07;93248.38;;;8.95;94.29
10606;BME280;5350;42.698;23.148;2023-03-25T03:03:34;93231.44;;;8.87;95.13
10606;BME280;5350;42.698;23.148;2023-03-25T03:06:03;93231.66;;;8.91;94.52
10606;BME280;5350;42.698;23.148;2023-03-25T03:08:42;93233.38;;;8.81;94.97
10606;BME280;5350;42.698;23.148;2023-03-25T03:11:16;93240.75;;;8.79;95.02
10606;BME280;5350;42.698;23.148;2023-03-25T03:13:58;93244.44;;;8.78;95.10
10606;BME280;5350;42.698;23.148;2023-03-25T03:16:32;93247.78;;;8.84;94.41
10606;BME280;5350;42.698;23.148;2023-03-25T03:19:07;93253.94;;;8.74;94.54
10606;BME280;5350;42.698;23.148;2023-03-25T03:21:40;93240.94;;;8.69;95.34
10606;BME280;5350;42.698;23.148;2023-03-25T03:24:15;93245.19;;;8.65;95.51
10606;BME280;5350;42.698;23.148;2023-03-25T03:26:47;93247.72;;;8.70;95.31
10606;BME280;5350;42.698;23.148;2023-03-25T03:29:19;93249.19;;;8.76;94.72
10606;BME280;5350;42.698;23.148;2023-03-25T03:31:53;93247.72;;;8.70;94.95
10606;BME280;5350;42.698;23.148;2023-03-25T03:34:26;93254.16;;;8.78;94.31
10606;BME280;5350;42.698;23.148;2023-03-25T03:36:56;93251.19;;;8.66;95.17
10606;BME280;5350;42.698;23.148;2023-03-25T03:39:27;93254.59;;;8.66;95.30
10606;BME280;5350;42.698;23.148;2023-03-25T03:42:00;93258.91;;;8.57;96.67
10606;BME280;5350;42.698;23.148;2023-03-25T03:44:30;93252.84;;;8.43;96.68
10606;BME280;5350;42.698;23.148;2023-03-25T03:47:01;93252.09;;;8.19;98.29
10606;BME280;5350;42.698;23.148;2023-03-25T03:49:35;93256.34;;;8.15;98.87
10606;BME280;5350;42.698;23.148;2023-03-25T03:52:06;93249.50;;;7.77;100.00
10606;BME280;5350;42.698;23.148;2023-03-25T03:54:37;93252.97;;;7.91;100.00
10606;BME280;5350;42.698;23.148;2023-03-25T03:57:11;93250.50;;;7.99;100.00
10606;BME280;5350;42.698;23.148;2023-03-25T03:59:46;93248.25;;;7.93;100.00
10606;BME280;5350;42.698;23.148;2023-03-25T04:02:19;93244.56;;;7.94;100.00
10606;BME280;5350;42.698;23.148;2023-03-25T04:04:48;93247.75;;;7.91;100.00
10606;BME280;5350;42.698;23.148;2023-03-25T04:07:17;93247.81;;;7.86;100.00
10606;BME280;5350;42.698;23.148;2023-03-25T04:09:51;93230.63;;;7.80;100.00
10606;BME280;5350;42.698;23.148;2023-03-25T04:12:24;93241.59;;;7.82;100.00
10606;BME280;5350;42.698;23.148;2023-03-25T04:14:52;93237.47;;;7.76;100.00
10606;BME280;5350;42.698;23.148;2023-03-25T04:17:19;93233.56;;;7.73;100.00
10606;BME280;5350;42.698;23.148;2023-03-25T04:19:46;93238.81;;;7.73;100.00
10606;BME280;5350;42.698;23.148;2023-03-25T04:22:16;93239.81;;;7.77;100.00
10606;BME280;5350;42.698;23.148;2023-03-25T04:24:43;93232.00;;;7.72;100.00
10606;BME280;5350;42.698;23.148;2023-03-25T04:27:11;93234.91;;;7.71;100.00
10606;BME280;5350;42.698;23.148;2023-03-25T04:29:40;93242.72;;;7.52;100.00
10606;BME280;5350;42.698;23.148;2023-03-25T04:32:09;93240.25;;;7.61;100.00
10606;BME280;5350;42.698;23.148;2023-03-25T04:34:37;93248.00;;;7.71;100.00
10606;BME280;5350;42.698;23.148;2023-03-25T04:37:03;93247.31;;;7.60;100.00
10606;BME280;5350;42.698;23.148;2023-03-25T04:39:30;93250.34;;;7.49;100.00
10606;BME280;5350;42.698;23.148;2023-03-25T04:41:58;93248.72;;;7.53;100.00
10606;BME280;5350;42.698;23.148;2023-03-25T04:44:27;93252.03;;;7.63;100.00
10606;BME280;5350;42.698;23.148;2023-03-25T04:46:58;93252.22;;;7.67;100.00
10606;BME280;5350;42.698;23.148;2023-03-25T04:49:26;93249.63;;;7.67;100.00
10606;BME280;5350;42.698;23.148;2023-03-25T04:51:53;93253.72;;;7.73;100.00
10606;BME280;5350;42.698;23.148;2023-03-25T04:54:21;93250.63;;;7.71;100.00
10606;BME280;5350;42.698;23.148;2023-03-25T04:56:48;93253.88;;;7.81;100.00
10606;BME280;5350;42.698;23.148;2023-03-25T04:59:15;93253.56;;;7.88;100.00
10606;BME280;5350;42.698;23.148;2023-03-25T05:01:44;93251.19;;;7.86;100.00
10606;BME280;5350;42.698;23.148;2023-03-25T05:04:12;93252.00;;;8.05;100.00
10606;BME280;5350;42.698;23.148;2023-03-25T05:06:43;93254.28;;;8.12;100.00
10606;BME280;5350;42.698;23.148;2023-03-25T05:09:13;93262.59;;;8.19;100.00
10606;BME280;5350;42.698;23.148;2023-03-25T05:11:41;93261.13;;;8.32;100.00
10606;BME280;5350;42.698;23.148;2023-03-25T05:14:09;93260.00;;;8.38;100.00
10606;BME280;5350;42.698;23.148;2023-03-25T05:16:36;93256.88;;;8.54;100.00
10606;BME280;5350;42.698;23.148;2023-03-25T05:19:04;93259.03;;;8.66;100.00
10606;BME280;5350;42.698;23.148;2023-03-25T05:21:32;93259.97;;;8.75;100.00
10606;BME280;5350;42.698;23.148;2023-03-25T05:24:00;93259.31;;;8.83;100.00
10606;BME280;5350;42.698;23.148;2023-03-25T05:26:27;93253.28;;;8.82;100.00
10606;BME280;5350;42.698;23.148;2023-03-25T05:28:59;93252.47;;;9.01;100.00
10606;BME280;5350;42.698;23.148;2023-03-25T05:31:27;93255.44;;;9.13;100.00
10606;BME280;5350;42.698;23.148;2023-03-25T05:33:53;93255.06;;;9.19;100.00
10606;BME280;5350;42.698;23.148;2023-03-25T05:36:22;93256.72;;;9.29;100.00
10606;BME280;5350;42.698;23.148;2023-03-25T05:38:51;93260.72;;;9.40;100.00
10606;BME280;5350;42.698;23.148;2023-03-25T05:41:20;93259.97;;;9.53;100.00
10606;BME280;5350;42.698;23.148;2023-03-25T05:43:56;93263.19;;;9.63;100.00
10606;BME280;5350;42.698;23.148;2023-03-25T05:46:25;93263.00;;;9.74;100.00
10606;BME280;5350;42.698;23.148;2023-03-25T05:48:54;93268.53;;;9.86;100.00
10606;BME280;5350;42.698;23.148;2023-03-25T05:51:24;93266.19;;;9.98;100.00
10606;BME280;5350;42.698;23.148;2023-03-25T05:53:51;93268.34;;;10.09;100.00
10606;BME280;5350;42.698;23.148;2023-03-25T05:56:19;93260.28;;;10.19;100.00
10606;BME280;5350;42.698;23.148;2023-03-25T05:58:49;93257.41;;;10.29;100.00
10606;BME280;5350;42.698;23.148;2023-03-25T06:01:18;93259.25;;;10.42;100.00
10606;BME280;5350;42.698;23.148;2023-03-25T06:03:45;93262.22;;;10.50;100.00
10606;BME280;5350;42.698;23.148;2023-03-25T06:06:13;93254.00;;;10.65;100.00
10606;BME280;5350;42.698;23.148;2023-03-25T06:08:44;93259.16;;;10.70;100.00
10606;BME280;5350;42.698;23.148;2023-03-25T06:11:12;93255.75;;;10.91;100.00
10606;BME280;5350;42.698;23.148;2023-03-25T06:13:39;93241.22;;;10.94;100.00
10606;BME280;5350;42.698;23.148;2023-03-25T06:16:07;93255.75;;;11.13;100.00
10606;BME280;5350;42.698;23.148;2023-03-25T06:18:34;93256.28;;;11.24;100.00
10606;BME280;5350;42.698;23.148;2023-03-25T06:21:01;93254.31;;;11.30;100.00
10606;BME280;5350;42.698;23.148;2023-03-25T06:23:28;93265.72;;;11.47;100.00
10606;BME280;5350;42.698;23.148;2023-03-25T06:25:56;93259.25;;;11.53;100.00
10606;BME280;5350;42.698;23.148;2023-03-25T06:28:23;93252.13;;;11.62;100.00
10606;BME280;5350;42.698;23.148;2023-03-25T06:30:49;93265.56;;;11.74;99.38
10606;BME280;5350;42.698;23.148;2023-03-25T06:33:16;93261.56;;;11.85;98.38
10606;BME280;5350;42.698;23.148;2023-03-25T06:35:45;93268.91;;;11.97;98.10
10606;BME280;5350;42.698;23.148;2023-03-25T06:38:14;93265.81;;;12.12;97.41
10606;BME280;5350;42.698;23.148;2023-03-25T06:40:40;93271.94;;;12.30;94.87
10606;BME280;5350;42.698;23.148;2023-03-25T06:43:08;93275.97;;;12.36;94.33
10606;BME280;5350;42.698;23.148;2023-03-25T06:45:35;93276.59;;;12.41;94.49
10606;BME280;5350;42.698;23.148;2023-03-25T06:48:02;93278.19;;;12.51;93.01
10606;BME280;5350;42.698;23.148;2023-03-25T06:50:30;93278.97;;;12.60;93.48
10606;BME280;5350;42.698;23.148;2023-03-25T06:52:57;93279.88;;;12.72;93.38
10606;BME280;5350;42.698;23.148;2023-03-25T06:55:23;93277.13;;;12.86;92.00
10606;BME280;5350;42.698;23.148;2023-03-25T06:57:53;93278.19;;;13.02;90.08
10606;BME280;5350;42.698;23.148;2023-03-25T07:00:22;93274.31;;;13.17;88.74
10606;BME280;5350;42.698;23.148;2023-03-25T07:02:51;93290.16;;;13.25;87.78
10606;BME280;5350;42.698;23.148;2023-03-25T07:05:17;93288.41;;;13.46;86.51
10606;BME280;5350;42.698;23.148;2023-03-25T07:07:44;93282.97;;;13.51;84.82
10606;BME280;5350;42.698;23.148;2023-03-25T07:10:11;93278.59;;;13.64;83.03
10606;BME280;5350;42.698;23.148;2023-03-25T07:12:38;93283.69;;;13.78;83.67
10606;BME280;5350;42.698;23.148;2023-03-25T07:15:06;93289.69;;;13.95;81.70
10606;BME280;5350;42.698;23.148;2023-03-25T07:17:34;93286.84;;;14.00;82.46
10606;BME280;5350;42.698;23.148;2023-03-25T07:20:01;93285.38;;;14.20;81.50
10606;BME280;5350;42.698;23.148;2023-03-25T07:22:28;93281.91;;;14.28;80.61
10606;BME280;5350;42.698;23.148;2023-03-25T07:24:55;93277.50;;;14.40;81.02
10606;BME280;5350;42.698;23.148;2023-03-25T07:27:23;93282.22;;;14.64;79.30
10606;BME280;5350;42.698;23.148;2023-03-25T07:29:50;93277.22;;;14.83;77.17
10606;BME280;5350;42.698;23.148;2023-03-25T07:32:17;93275.13;;;14.97;77.03
10606;BME280;5350;42.698;23.148;2023-03-25T07:34:45;93269.66;;;15.14;76.57
10606;BME280;5350;42.698;23.148;2023-03-25T07:37:12;93278.16;;;15.41;75.53
10606;BME280;5350;42.698;23.148;2023-03-25T07:39:38;93269.66;;;15.68;75.56
10606;BME280;5350;42.698;23.148;2023-03-25T07:42:05;93271.25;;;15.93;72.06
10606;BME280;5350;42.698;23.148;2023-03-25T07:44:32;93271.25;;;16.17;67.92
10606;BME280;5350;42.698;23.148;2023-03-25T07:46:59;93260.22;;;16.39;65.13
10606;BME280;5350;42.698;23.148;2023-03-25T07:49:25;93254.00;;;16.59;62.70
10606;BME280;5350;42.698;23.148;2023-03-25T07:51:53;93253.72;;;16.89;52.41
10606;BME280;5350;42.698;23.148;2023-03-25T07:54:20;93232.56;;;17.04;44.52
10606;BME280;5350;42.698;23.148;2023-03-25T07:56:48;93235.19;;;17.32;44.20
10606;BME280;5350;42.698;23.148;2023-03-25T07:59:17;93236.13;;;17.51;42.45
10606;BME280;5350;42.698;23.148;2023-03-25T08:01:43;93238.13;;;17.70;41.17
10606;BME280;5350;42.698;23.148;2023-03-25T08:04:10;93220.28;;;17.86;41.03
10606;BME280;5350;42.698;23.148;2023-03-25T08:06:38;93222.88;;;18.14;41.90
10606;BME280;5350;42.698;23.148;2023-03-25T08:09:06;93224.75;;;18.29;38.63
10606;BME280;5350;42.698;23.148;2023-03-25T08:11:33;93216.56;;;18.38;40.62
10606;BME280;5350;42.698;23.148;2023-03-25T08:13:59;93229.03;;;18.49;38.75
10606;BME280;5350;42.698;23.148;2023-03-25T08:16:26;93223.69;;;18.49;38.59
10606;BME280;5350;42.698;23.148;2023-03-25T08:18:53;93218.97;;;18.43;39.21
10606;BME280;5350;42.698;23.148;2023-03-25T08:21:20;93224.47;;;18.50;39.50
10606;BME280;5350;42.698;23.148;2023-03-25T08:23:50;93226.00;;;18.51;38.46
10606;BME280;5350;42.698;23.148;2023-03-25T08:26:18;93226.09;;;18.54;38.27
10606;BME280;5350;42.698;23.148;2023-03-25T08:28:44;93215.97;;;18.79;39.01
10606;BME280;5350;42.698;23.148;2023-03-25T08:31:12;93219.66;;;18.55;38.33
10606;BME280;5350;42.698;23.148;2023-03-25T08:33:39;93217.84;;;18.59;38.77
10606;BME280;5350;42.698;23.148;2023-03-25T08:36:07;93217.28;;;18.69;38.56
10606;BME280;5350;42.698;23.148;2023-03-25T08:38:38;93208.53;;;18.69;38.15
10606;BME280;5350;42.698;23.148;2023-03-25T08:41:06;93212.78;;;18.73;39.07
10606;BME280;5350;42.698;23.148;2023-03-25T08:43:34;93205.75;;;18.81;38.71
10606;BME280;5350;42.698;23.148;2023-03-25T08:46:01;93200.13;;;18.86;38.19
10606;BME280;5350;42.698;23.148;2023-03-25T08:48:28;93203.97;;;18.88;39.38
10606;BME280;5350;42.698;23.148;2023-03-25T08:50:54;93206.66;;;19.07;39.01
10606;BME280;5350;42.698;23.148;2023-03-25T08:53:21;93198.59;;;19.23;38.41
10606;BME280;5350;42.698;23.148;2023-03-25T08:55:50;93199.34;;;19.24;38.88
10606;BME280;5350;42.698;23.148;2023-03-25T08:58:17;93191.59;;;19.34;39.16
10606;BME280;5350;42.698;23.148;2023-03-25T09:00:45;93178.88;;;19.69;39.80
10606;BME280;5350;42.698;23.148;2023-03-25T09:03:12;93182.31;;;19.92;38.54
10606;BME280;5350;42.698;23.148;2023-03-25T09:05:39;93185.72;;;20.16;37.71
10606;BME280;5350;42.698;23.148;2023-03-25T09:08:06;93182.88;;;20.28;44.11
10606;BME280;5350;42.698;23.148;2023-03-25T09:10:34;93183.81;;;20.39;46.64
10606;BME280;5350;42.698;23.148;2023-03-25T09:13:00;93176.06;;;20.30;46.48
10606;BME280;5350;42.698;23.148;2023-03-25T09:15:27;93181.31;;;20.23;46.78
10606;BME280;5350;42.698;23.148;2023-03-25T09:17:55;93181.81;;;20.10;49.77
10606;BME280;5350;42.698;23.148;2023-03-25T09:20:22;93175.53;;;19.99;51.28
10606;BME280;5350;42.698;23.148;2023-03-25T09:22:49;93168.78;;;20.05;51.38
10606;BME280;5350;42.698;23.148;2023-03-25T09:25:16;93178.09;;;20.14;49.64
10606;BME280;5350;42.698;23.148;2023-03-25T09:27:42;93176.44;;;20.06;50.23
10606;BME280;5350;42.698;23.148;2023-03-25T09:30:10;93176.84;;;20.31;50.38
10606;BME280;5350;42.698;23.148;2023-03-25T09:32:37;93176.22;;;20.41;49.48
10606;BME280;5350;42.698;23.148;2023-03-25T09:35:06;93170.31;;;20.54;48.53
10606;BME280;5350;42.698;23.148;2023-03-25T09:37:33;93168.69;;;20.76;49.83
10606;BME280;5350;42.698;23.148;2023-03-25T09:39:59;93176.16;;;20.93;45.76
10606;BME280;5350;42.698;23.148;2023-03-25T09:42:36;93171.22;;;20.95;47.27
10606;BME280;5350;42.698;23.148;2023-03-25T09:45:19;93171.91;;;21.18;44.28
10606;BME280;5350;42.698;23.148;2023-03-25T09:47:54;93165.19;;;21.31;44.22
10606;BME280;5350;42.698;23.148;2023-03-25T09:50:24;93165.69;;;21.44;43.24
10606;BME280;5350;42.698;23.148;2023-03-25T09:52:55;93155.91;;;21.62;43.70
10606;BME280;5350;42.698;23.148;2023-03-25T09:55:25;93153.97;;;21.96;43.18
10606;BME280;5350;42.698;23.148;2023-03-25T09:57:59;93153.72;;;22.15;41.43
10606;BME280;5350;42.698;23.148;2023-03-25T10:00:26;93146.09;;;22.20;41.72
10606;BME280;5350;42.698;23.148;2023-03-25T10:03:03;93145.47;;;22.38;40.16
10606;BME280;5350;42.698;23.148;2023-03-25T10:05:47;93139.16;;;22.63;41.36
10606;BME280;5350;42.698;23.148;2023-03-25T10:08:23;93130.34;;;22.66;41.54
10606;BME280;5350;42.698;23.148;2023-03-25T10:10:54;93122.31;;;22.70;38.65
10606;BME280;5350;42.698;23.148;2023-03-25T10:13:33;93124.47;;;22.50;37.78
10606;BME280;5350;42.698;23.148;2023-03-25T10:16:07;93114.25;;;22.66;38.01
10606;BME280;5350;42.698;23.148;2023-03-25T10:18:51;93116.59;;;22.78;40.58
10606;BME280;5350;42.698;23.148;2023-03-25T10:21:27;93101.38;;;23.00;38.61
10606;BME280;5350;42.698;23.148;2023-03-25T10:24:04;93101.41;;;23.11;36.52
10606;BME280;5350;42.698;23.148;2023-03-25T10:26:39;93094.50;;;23.10;36.64
10606;BME280;5350;42.698;23.148;2023-03-25T10:29:11;93093.75;;;23.16;37.44
10606;BME280;5350;42.698;23.148;2023-03-25T10:31:49;93095.25;;;23.14;36.13
10606;BME280;5350;42.698;23.148;2023-03-25T10:34:18;93095.28;;;23.24;34.98
10606;BME280;5350;42.698;23.148;2023-03-25T10:36:50;93096.03;;;23.11;36.90
10606;BME280;5350;42.698;23.148;2023-03-25T10:39:21;93099.13;;;23.27;35.63
10606;BME280;5350;42.698;23.148;2023-03-25T10:41:51;93093.00;;;23.26;35.02
10606;BME280;5350;42.698;23.148;2023-03-25T10:44:21;93090.03;;;23.63;35.80
10606;BME280;5350;42.698;23.148;2023-03-25T10:46:53;93086.97;;;23.71;34.01
10606;BME280;5350;42.698;23.148;2023-03-25T10:49:24;93076.97;;;23.47;34.64
10606;BME280;5350;42.698;23.148;2023-03-25T10:51:54;93076.97;;;23.47;36.24
10606;BME280;5350;42.698;23.148;2023-03-25T10:54:24;93071.59;;;23.44;33.88
10606;BME280;5350;42.698;23.148;2023-03-25T10:56:55;93074.22;;;23.26;33.91
10606;BME280;5350;42.698;23.148;2023-03-25T10:59:29;93068.50;;;23.31;33.86
10606;BME280;5350;42.698;23.148;2023-03-25T11:02:02;93067.31;;;23.18;34.14
10606;BME280;5350;42.698;23.148;2023-03-25T11:04:35;93070.41;;;23.24;33.59
10606;BME280;5350;42.698;23.148;2023-03-25T11:07:15;93057.72;;;23.14;33.69
10606;BME280;5350;42.698;23.148;2023-03-25T11:09:43;93065.31;;;22.80;33.74
10606;BME280;5350;42.698;23.148;2023-03-25T11:12:10;93073.78;;;23.03;34.22
10606;BME280;5350;42.698;23.148;2023-03-25T11:14:38;93060.41;;;23.07;33.63
10606;BME280;5350;42.698;23.148;2023-03-25T11:17:10;93057.69;;;22.99;34.01
10606;BME280;5350;42.698;23.148;2023-03-25T11:19:43;93048.44;;;22.86;34.61
10606;BME280;5350;42.698;23.148;2023-03-25T11:22:17;93043.84;;;22.83;34.52
10606;BME280;5350;42.698;23.148;2023-03-25T11:24:48;93045.78;;;22.93;34.34
10606;BME280;5350;42.698;23.148;2023-03-25T11:27:17;93037.78;;;23.08;34.38
10606;BME280;5350;42.698;23.148;2023-03-25T11:29:50;93048.47;;;22.97;33.35
10606;BME280;5350;42.698;23.148;2023-03-25T11:32:31;93038.53;;;22.97;34.85
10606;BME280;5350;42.698;23.148;2023-03-25T11:35:00;93039.72;;;23.07;33.92
10606;BME280;5350;42.698;23.148;2023-03-25T11:37:29;93043.16;;;23.11;33.86
10606;BME280;5350;42.698;23.148;2023-03-25T11:40:03;93035.47;;;23.10;33.19
10606;BME280;5350;42.698;23.148;2023-03-25T11:42:38;93038.94;;;23.10;33.04
10606;BME280;5350;42.698;23.148;2023-03-25T11:45:18;93040.75;;;22.67;32.47
10606;BME280;5350;42.698;23.148;2023-03-25T11:47:46;93027.53;;;22.27;33.83
10606;BME280;5350;42.698;23.148;2023-03-25T11:50:19;93025.22;;;22.25;33.53
10606;BME280;5350;42.698;23.148;2023-03-25T11:52:48;93021.72;;;22.11;34.28
10606;BME280;5350;42.698;23.148;2023-03-25T11:55:22;93025.00;;;21.87;34.29
10606;BME280;5350;42.698;23.148;2023-03-25T11:57:51;93023.72;;;21.74;34.83
10606;BME280;5350;42.698;23.148;2023-03-25T12:00:30;93024.78;;;21.62;34.27
10606;BME280;5350;42.698;23.148;2023-03-25T12:02:59;93021.16;;;21.37;34.57
10606;BME280;5350;42.698;23.148;2023-03-25T12:05:27;93024.34;;;21.09;35.29
10606;BME280;5350;42.698;23.148;2023-03-25T12:08:04;93019.00;;;21.09;35.19
10606;BME280;5350;42.698;23.148;2023-03-25T12:10:45;93011.25;;;21.01;36.63
10606;BME280;5350;42.698;23.148;2023-03-25T12:13:21;93015.38;;;20.91;35.34
10606;BME280;5350;42.698;23.148;2023-03-25T12:15:56;93007.94;;;20.74;36.26
10606;BME280;5350;42.698;23.148;2023-03-25T12:18:37;93008.00;;;20.81;35.54
10606;BME280;5350;42.698;23.148;2023-03-25T12:21:19;93011.41;;;20.78;36.08
10606;BME280;5350;42.698;23.148;2023-03-25T12:23:59;93006.81;;;20.75;36.14
10606;BME280;5350;42.698;23.148;2023-03-25T12:26:35;93008.03;;;20.85;36.04
10606;BME280;5350;42.698;23.148;2023-03-25T12:29:25;93013.38;;;20.85;36.07
10606;BME280;5350;42.698;23.148;2023-03-25T12:32:04;93017.50;;;20.75;35.04
10606;BME280;5350;42.698;23.148;2023-03-25T12:34:47;93007.25;;;20.84;35.52
10606;BME280;5350;42.698;23.148;2023-03-25T12:37:26;93006.97;;;20.93;36.00
10606;BME280;5350;42.698;23.148;2023-03-25T12:40:17;92995.97;;;21.01;36.05
10606;BME280;5350;42.698;23.148;2023-03-25T12:42:55;92994.75;;;20.92;35.41
10606;BME280;5350;42.698;23.148;2023-03-25T12:45:49;92996.25;;;20.89;36.21
10606;BME280;5350;42.698;23.148;2023-03-25T12:48:33;93006.47;;;20.80;36.41
10606;BME280;5350;42.698;23.148;2023-03-25T12:51:06;92998.72;;;20.68;36.47
10606;BME280;5350;42.698;23.148;2023-03-25T12:53:46;92998.66;;;20.61;35.72
10606;BME280;5350;42.698;23.148;2023-03-25T12:56:28;92993.94;;;20.51;36.28
10606;BME280;5350;42.698;23.148;2023-03-25T12:59:20;92991.25;;;20.51;36.15
10606;BME280;5350;42.698;23.148;2023-03-25T13:01:57;92993.81;;;20.40;36.28
10606;BME280;5350;42.698;23.148;2023-03-25T13:07:17;92982.28;;;20.33;36.57
10606;BME280;5350;42.698;23.148;2023-03-25T13:09:52;92985.28;;;20.28;37.10
10606;BME280;5350;42.698;23.148;2023-03-25T13:12:29;92990.56;;;20.24;36.91
10606;BME280;5350;42.698;23.148;2023-03-25T13:15:03;92991.09;;;20.07;37.16
10606;BME280;5350;42.698;23.148;2023-03-25T13:17:35;92987.44;;;19.89;37.81
10606;BME280;5350;42.698;23.148;2023-03-25T13:20:05;92996.03;;;19.75;37.93
10606;BME280;5350;42.698;23.148;2023-03-25T13:22:38;93007.97;;;19.59;38.64
10606;BME280;5350;42.698;23.148;2023-03-25T13:25:17;93021.09;;;19.22;37.99
10606;BME280;5350;42.698;23.148;2023-03-25T13:27:48;93015.06;;;18.61;40.97
10606;BME280;5350;42.698;23.148;2023-03-25T13:30:21;93035.31;;;18.46;41.85
10606;BME280;5350;42.698;23.148;2023-03-25T13:32:53;93030.88;;;18.34;42.06